Time;durP1;ratioP1;P1;durP2;ratioP2;P2;SDS_P1;SDS_P2;PMS_P1;PMS_P2;Temp;Humidity;BMP_temperature;BMP_pressure;BME280_temperature;BME280_humidity;BME280_pressure;Samples;Min_cycle;Max_cycle;Signal;HPM_P1;HPM_P2
2021/04/13 00:00:20;;;;;;;7.95;2.72;;;;;;;18.02;50.94;102528.47;489229;28;1091;-63
2021/04/13 00:00:35;;;;;;;9.40;2.90;;;;;;;18.02;50.59;102533.03;487050;28;67579;-63
2021/04/13 00:00:49;;;;;;;9.55;3.10;;;;;;;18.02;50.87;102533.88;489216;28;957;-63
2021/04/13 00:01:13;;;;;;;9.40;3.17;;;;;;;18.03;50.90;102529.31;489415;28;969;-63
2021/04/13 00:01:36;;;;;;;8.07;3.00;;;;;;;18.02;50.86;102530.31;487003;28;66806;-63
2021/04/13 00:02:10;;;;;;;8.85;2.90;;;;;;;18.02;50.75;102527.59;486303;28;82382;-63
2021/04/13 00:02:39;;;;;;;7.78;3.10;;;;;;;18.03;50.60;102532.03;485540;28;91345;-63
2021/04/13 00:02:55;;;;;;;8.20;2.72;;;;;;;18.01;51.18;102532.16;487023;28;66033;-63
2021/04/13 00:03:10;;;;;;;8.13;2.80;;;;;;;18.02;50.97;102528.47;489408;28;921;-63
2021/04/13 00:03:26;;;;;;;8.82;2.90;;;;;;;18.01;50.77;102525.88;489274;28;1087;-63
2021/04/13 00:03:41;;;;;;;8.15;2.55;;;;;;;18.02;51.08;102536.59;489290;28;1089;-63
2021/04/13 00:04:05;;;;;;;8.03;2.50;;;;;;;18.02;50.96;102527.59;489344;28;886;-62
2021/04/13 00:04:20;;;;;;;8.38;2.80;;;;;;;18.03;50.93;102538.31;487095;28;66059;-63
2021/04/13 00:04:35;;;;;;;7.70;2.83;;;;;;;18.02;50.86;102527.59;486857;28;1051;-63
2021/04/13 00:04:53;;;;;;;10.07;3.10;;;;;;;18.02;50.81;102524.91;487435;28;811;-63
2021/04/13 00:05:23;;;;;;;10.90;3.25;;;;;;;18.03;50.87;102532.88;485813;28;41733;-63
2021/04/13 00:05:48;;;;;;;7.63;2.83;;;;;;;18.03;51.19;102526.59;485208;28;65012;-63
2021/04/13 00:06:03;;;;;;;7.53;2.95;;;;;;;18.03;51.05;102532.88;485233;28;66399;-63
2021/04/13 00:06:23;;;;;;;7.95;2.88;;;;;;;18.03;51.11;102527.47;487455;28;843;-63
2021/04/13 00:06:46;;;;;;;7.15;2.75;;;;;;;18.04;50.99;102536.44;486073;28;64451;-63
2021/04/13 00:07:01;;;;;;;6.97;2.95;;;;;;;18.03;50.90;102530.16;486887;28;65020;-63
2021/04/13 00:07:16;;;;;;;8.40;3.05;;;;;;;18.03;50.76;102530.16;489383;28;851;-62
2021/04/13 00:07:30;;;;;;;8.60;2.83;;;;;;;18.02;51.17;102533.88;489253;28;938;-63
2021/04/13 00:07:48;;;;;;;7.57;2.57;;;;;;;18.03;51.05;102530.16;489383;28;969;-63
2021/04/13 00:08:09;;;;;;;7.47;2.70;;;;;;;18.03;50.94;102535.59;488744;28;19579;-63
2021/04/13 00:08:25;;;;;;;8.55;2.88;;;;;;;18.04;50.87;102536.44;486326;28;87587;-63
2021/04/13 00:08:41;;;;;;;7.53;2.70;;;;;;;18.03;51.10;102532.03;489118;28;1274;-63
2021/04/13 00:09:05;;;;;;;6.47;2.63;;;;;;;18.03;51.19;102535.59;489254;28;972;-63
2021/04/13 00:09:27;;;;;;;7.60;2.80;;;;;;;18.02;51.01;102536.59;486971;28;66001;-63
2021/04/13 00:09:44;;;;;;;6.78;2.72;;;;;;;18.03;51.33;102532.03;487134;28;64291;-63
2021/04/13 00:10:01;;;;;;;7.10;2.75;;;;;;;18.02;51.16;102531.16;489260;28;868;-63
2021/04/13 00:10:20;;;;;;;9.00;2.90;;;;;;;18.02;51.18;102533.03;489398;28;902;-63
2021/04/13 00:10:42;;;;;;;8.10;2.80;;;;;;;18.02;50.95;102535.72;486012;28;41615;-63
2021/04/13 00:10:59;;;;;;;8.40;2.83;;;;;;;18.03;51.33;102532.03;485080;28;65117;-63
2021/04/13 00:11:14;;;;;;;8.40;3.00;;;;;;;18.04;51.31;102536.44;487406;28;1910;-63
2021/04/13 00:11:29;;;;;;;8.88;2.90;;;;;;;18.03;51.22;102542.88;488014;28;874;-63
2021/04/13 00:11:46;;;;;;;8.90;2.70;;;;;;;18.03;51.12;102542.88;489322;28;1044;-63
2021/04/13 00:12:03;;;;;;;8.43;2.80;;;;;;;18.04;51.04;102531.03;488579;28;19372;-63
2021/04/13 00:12:23;;;;;;;7.90;2.78;;;;;;;18.03;51.03;102535.59;487865;28;1490;-63
2021/04/13 00:12:38;;;;;;;7.53;2.75;;;;;;;18.03;51.31;102537.44;485851;28;65495;-64
2021/04/13 00:12:53;;;;;;;6.57;2.78;;;;;;;18.05;51.28;102530.03;487392;28;867;-64
2021/04/13 00:13:07;;;;;;;6.80;2.90;;;;;;;18.02;50.56;102535.72;487862;28;871;-63
2021/04/13 00:13:23;;;;;;;7.32;2.92;;;;;;;18.03;50.38;102537.44;489279;28;879;-64
2021/04/13 00:13:41;;;;;;;8.95;3.03;;;;;;;18.06;50.38;102539.88;489352;28;1041;-63
2021/04/13 00:14:00;;;;;;;12.05;3.25;;;;;;;18.05;50.49;102539.00;488129;28;19725;-63
2021/04/13 00:14:18;;;;;;;11.82;3.17;;;;;;;18.06;50.14;102543.44;488575;28;19331;-63
2021/04/13 00:14:40;;;;;;;8.25;2.70;;;;;;;18.04;49.78;102536.44;488774;28;19907;-63
2021/04/13 00:15:11;;;;;;;10.63;3.00;;;;;;;17.99;49.91;102538.72;486968;28;65228;-63
2021/04/13 00:15:35;;;;;;;10.98;3.13;;;;;;;17.94;49.78;102535.63;486979;28;65366;-68
2021/04/13 00:15:53;;;;;;;16.95;3.17;;;;;;;17.99;49.29;102538.72;487117;28;65583;-63
2021/04/13 00:16:19;;;;;;;16.30;3.20;;;;;;;17.99;49.45;102536.03;488544;28;19883;-63
2021/04/13 00:16:35;;;;;;;9.25;3.00;;;;;;;17.99;49.93;102542.28;487096;28;64308;-64
2021/04/13 00:16:51;;;;;;;11.02;3.00;;;;;;;18.01;49.84;102544.88;489280;28;925;-63
2021/04/13 00:17:12;;;;;;;17.10;3.10;;;;;;;18.01;49.83;102536.72;489347;28;906;-63
2021/04/13 00:17:31;;;;;;;17.02;3.08;;;;;;;18.02;49.72;102538.44;486557;28;79207;-63
2021/04/13 00:17:46;;;;;;;8.65;3.10;;;;;;;18.02;49.57;102535.72;488601;28;18779;-64
2021/04/13 00:18:03;;;;;;;8.27;2.75;;;;;;;18.03;49.90;102538.31;489226;28;921;-63
2021/04/13 00:18:23;;;;;;;10.02;2.70;;;;;;;18.04;50.17;102547.28;489403;28;877;-63
2021/04/13 00:18:41;;;;;;;10.00;3.00;;;;;;;18.04;50.33;102536.44;487189;28;65393;-63
2021/04/13 00:18:55;;;;;;;8.82;3.10;;;;;;;18.04;50.31;102545.44;488636;28;18583;-63
2021/04/13 00:19:11;;;;;;;9.55;2.83;;;;;;;18.03;50.53;102538.31;489097;28;1231;-63
2021/04/13 00:19:46;;;;;;;11.23;2.97;;;;;;;18.04;50.55;102533.72;489104;28;1182;-63
2021/04/13 00:20:18;;;;;;;7.60;2.70;;;;;;;18.04;50.86;102541.88;485244;28;65363;-63
2021/04/13 00:20:43;;;;;;;7.54;2.88;;;;;;;18.04;50.88;102536.44;485222;28;89766;-63
2021/04/13 00:21:31;;;;;;;7.70;2.70;;;;;;;18.04;50.52;102541.88;486936;28;66628;-64
2021/04/13 00:21:46;;;;;;;7.35;2.70;;;;;;;18.04;50.74;102539.16;484965;28;66296;-63
2021/04/13 00:22:01;;;;;;;7.55;2.80;;;;;;;18.04;50.83;102540.00;487317;28;910;-64
2021/04/13 00:22:16;;;;;;;7.57;2.90;;;;;;;18.05;50.98;102540.88;488780;28;990;-63
2021/04/13 00:22:32;;;;;;;7.88;2.88;;;;;;;18.04;51.10;102533.72;489168;28;1095;-63
2021/04/13 00:22:47;;;;;;;6.95;2.65;;;;;;;18.04;50.77;102533.72;487569;28;997;-63
2021/04/13 00:23:03;;;;;;;6.72;2.60;;;;;;;18.04;51.02;102541.88;489286;28;966;-63
2021/04/13 00:23:18;;;;;;;9.73;2.70;;;;;;;18.05;51.06;102541.72;489254;28;970;-63
2021/04/13 00:23:33;;;;;;;9.27;2.60;;;;;;;18.05;50.83;102535.44;489379;28;940;-63
2021/04/13 00:23:48;;;;;;;7.30;2.53;;;;;;;18.05;50.70;102533.59;489251;28;1041;-63
2021/04/13 00:24:07;;;;;;;7.55;2.60;;;;;;;18.06;51.14;102537.16;489252;28;1060;-63
2021/04/13 00:24:23;;;;;;;6.82;2.70;;;;;;;18.05;51.04;102533.59;487922;28;42429;-63
2021/04/13 00:24:37;;;;;;;7.50;2.60;;;;;;;18.05;50.87;102533.59;489167;28;1278;-63
2021/04/13 00:24:53;;;;;;;7.93;2.80;;;;;;;18.04;51.25;102531.88;489317;28;1029;-63
2021/04/13 00:25:09;;;;;;;8.35;2.70;;;;;;;18.05;50.77;102539.00;489323;28;961;-63
2021/04/13 00:25:34;;;;;;;9.30;2.92;;;;;;;18.04;51.23;102529.16;489115;28;1324;-63
2021/04/13 00:25:53;;;;;;;9.02;2.80;;;;;;;18.05;50.97;102538.16;487123;28;64372;-63
2021/04/13 00:26:10;;;;;;;9.30;2.70;;;;;;;18.04;51.08;102529.16;487747;28;41636;-63
2021/04/13 00:26:31;;;;;;;8.75;2.55;;;;;;;18.06;51.16;102534.44;489173;28;894;-63
2021/04/13 00:26:51;;;;;;;10.57;2.70;;;;;;;18.04;50.96;102537.31;487085;28;66988;-63
2021/04/13 00:27:06;;;;;;;10.20;2.75;;;;;;;18.05;51.10;102536.31;486980;28;66391;-63
2021/04/13 00:27:23;;;;;;;7.90;2.72;;;;;;;18.06;51.01;102531.75;489270;28;937;-64
2021/04/13 00:27:38;;;;;;;9.23;2.80;;;;;;;18.05;51.08;102530.88;489389;28;843;-63
2021/04/13 00:27:53;;;;;;;9.90;2.95;;;;;;;18.06;51.13;102534.44;489052;28;1231;-64
2021/04/13 00:28:08;;;;;;;9.33;2.90;;;;;;;18.05;51.02;102535.44;489474;28;850;-63
2021/04/13 00:28:26;;;;;;;7.80;2.65;;;;;;;18.05;51.07;102536.31;489379;28;1130;-64
2021/04/13 00:28:48;;;;;;;7.10;2.67;;;;;;;18.05;51.41;102538.16;487528;28;41698;-64
2021/04/13 00:29:11;;;;;;;7.53;2.70;;;;;;;18.05;51.28;102532.75;487070;28;65515;-63
2021/04/13 00:29:31;;;;;;;8.10;2.70;;;;;;;18.05;51.36;102532.75;487045;28;65889;-64
2021/04/13 00:29:45;;;;;;;7.38;2.53;;;;;;;18.06;51.42;102534.44;485915;28;43345;-63
2021/04/13 00:30:10;;;;;;;6.05;2.63;;;;;;;18.05;51.24;102530.03;487395;28;1002;-63
2021/04/13 00:30:38;;;;;;;7.35;2.60;;;;;;;18.05;50.51;102530.03;486068;28;64347;-64
2021/04/13 00:30:59;;;;;;;6.65;2.58;;;;;;;18.06;51.37;102531.75;487057;28;65163;-63
2021/04/13 00:32:00;;;;;;;8.50;3.13;;;;;;;18.05;51.18;102533.59;488065;28;35370;-63
2021/04/13 00:32:22;;;;;;;6.80;2.58;;;;;;;18.06;51.35;102531.75;487033;28;67620;-63
2021/04/13 00:32:38;;;;;;;5.93;2.50;;;;;;;18.05;51.28;102530.03;487077;28;67286;-63
2021/04/13 00:33:01;;;;;;;6.20;2.50;;;;;;;18.06;51.20;102532.59;488431;28;858;-63
2021/04/13 00:33:26;;;;;;;7.35;2.70;;;;;;;18.05;51.17;102530.03;484313;28;87433;-63
2021/04/13 00:33:41;;;;;;;8.40;2.72;;;;;;;18.05;51.33;102530.88;486058;28;66033;-63
2021/04/13 00:33:56;;;;;;;7.50;2.53;;;;;;;18.05;51.34;102528.19;489206;28;886;-63
2021/04/13 00:34:19;;;;;;;7.00;2.35;;;;;;;18.04;51.13;102525.59;489356;28;937;-63
2021/04/13 00:35:07;;;;;;;7.03;2.58;;;;;;;18.04;51.13;102526.47;486989;28;66718;-63
2021/04/13 00:35:30;;;;;;;8.25;2.80;;;;;;;18.04;51.25;102531.88;486238;28;67445;-62
2021/04/13 00:35:48;;;;;;;8.80;2.75;;;;;;;18.05;51.16;102536.31;486995;28;67467;-63
2021/04/13 00:36:10;;;;;;;6.95;2.80;;;;;;;18.05;51.46;102533.59;488893;28;930;-63
2021/04/13 00:36:25;;;;;;;6.13;2.70;;;;;;;18.04;51.56;102531.88;486784;28;66406;-63
2021/04/13 00:36:42;;;;;;;5.80;2.60;;;;;;;18.03;51.43;102524.75;489464;28;957;-63
2021/04/13 00:37:23;;;;;;;6.07;2.65;;;;;;;18.05;51.45;102532.75;489168;28;891;-63
2021/04/13 00:37:37;;;;;;;7.10;2.58;;;;;;;18.04;51.23;102531.88;486875;28;67317;-63
2021/04/13 00:38:12;;;;;;;6.30;2.40;;;;;;;18.05;51.14;102535.44;488677;28;1036;-63
2021/04/13 00:38:31;;;;;;;7.43;2.78;;;;;;;18.04;51.01;102531.03;484859;28;67963;-64
2021/04/13 00:38:48;;;;;;;6.82;2.72;;;;;;;18.04;51.63;102534.59;485818;28;43643;-64
2021/04/13 00:39:34;;;;;;;6.43;2.63;;;;;;;18.04;50.92;102525.59;487189;28;1274;-63
2021/04/13 00:39:49;;;;;;;7.72;2.55;;;;;;;18.04;51.56;102531.03;485082;28;66566;-64
2021/04/13 00:40:32;;;;;;;7.40;2.58;;;;;;;18.04;51.46;102528.31;489137;28;1012;-64
2021/04/13 00:40:48;;;;;;;5.32;2.20;;;;;;;18.05;50.98;102535.44;484866;28;66311;-63
2021/04/13 00:41:25;;;;;;;7.38;2.50;;;;;;;18.04;51.34;102531.03;486735;28;1297;-63
2021/04/13 00:41:45;;;;;;;6.53;2.63;;;;;;;18.04;51.14;102525.59;485210;28;66754;-63
2021/04/13 00:42:02;;;;;;;7.60;2.65;;;;;;;18.04;51.25;102536.44;486766;28;67816;-63
2021/04/13 00:42:26;;;;;;;7.53;2.80;;;;;;;18.03;51.49;102532.03;489402;28;862;-64
2021/04/13 00:42:41;;;;;;;7.25;2.40;;;;;;;18.04;51.33;102534.59;486296;28;65289;-63
2021/04/13 00:43:03;;;;;;;6.70;2.53;;;;;;;18.03;51.16;102527.47;487395;28;942;-63
2021/04/13 00:43:21;;;;;;;5.82;2.50;;;;;;;18.03;51.40;102529.31;486362;28;65433;-63
2021/04/13 00:43:40;;;;;;;6.57;2.47;;;;;;;18.03;51.36;102535.59;488141;28;19934;-63
2021/04/13 00:44:09;;;;;;;6.60;2.50;;;;;;;18.04;51.15;102531.88;487871;28;42558;-63
2021/04/13 00:44:24;;;;;;;6.22;2.53;;;;;;;18.04;50.83;102542.72;486975;28;65125;-63
2021/04/13 00:44:49;;;;;;;6.13;2.50;;;;;;;18.03;51.35;102535.59;489276;28;1076;-63
2021/04/13 00:45:28;;;;;;;6.38;2.60;;;;;;;18.03;51.35;102534.72;484346;28;89646;-64
2021/04/13 00:45:46;;;;;;;7.00;2.58;;;;;;;18.06;51.01;102537.16;482965;28;66470;-64
2021/04/13 00:46:04;;;;;;;6.53;2.60;;;;;;;18.05;51.48;102539.00;488143;28;1289;-63
2021/04/13 00:46:26;;;;;;;6.07;2.50;;;;;;;18.05;51.43;102540.88;487805;28;41061;-63
2021/04/13 00:47:05;;;;;;;6.45;2.38;;;;;;;18.05;51.21;102535.44;486840;28;64400;-63
2021/04/13 00:47:26;;;;;;;5.95;2.45;;;;;;;18.05;51.54;102536.31;486981;28;64959;-64
2021/04/13 00:47:43;;;;;;;5.60;2.40;;;;;;;18.05;51.46;102535.44;486983;28;68058;-64
2021/04/13 00:47:58;;;;;;;6.63;2.70;;;;;;;18.05;51.12;102539.00;489363;28;1083;-63
2021/04/13 00:48:27;;;;;;;6.95;2.70;;;;;;;18.06;51.58;102535.31;489319;28;961;-63
2021/04/13 00:48:43;;;;;;;6.22;2.45;;;;;;;18.07;51.55;102544.28;485115;28;64970;-63
2021/04/13 00:49:00;;;;;;;5.82;2.40;;;;;;;18.06;51.40;102538.00;487411;28;873;-63
2021/04/13 00:49:17;;;;;;;6.13;2.42;;;;;;;18.07;51.36;102541.59;487988;28;909;-63
2021/04/13 00:49:36;;;;;;;6.03;2.35;;;;;;;18.07;51.50;102541.59;489293;28;881;-64
2021/04/13 00:49:55;;;;;;;5.60;2.30;;;;;;;18.07;51.15;102539.72;487883;28;43126;-63
2021/04/13 00:50:22;;;;;;;7.40;2.45;;;;;;;18.08;51.28;102537.88;487138;28;43312;-63
2021/04/13 00:50:42;;;;;;;5.50;2.40;;;;;;;18.07;51.42;102536.16;486935;28;65026;-63
2021/04/13 00:51:06;;;;;;;6.05;2.50;;;;;;;18.07;51.66;102537.00;486637;28;66733;-63
2021/04/13 00:51:43;;;;;;;6.57;2.60;;;;;;;18.08;51.51;102548.72;486893;28;63952;-63
2021/04/13 00:52:05;;;;;;;5.50;2.30;;;;;;;18.08;51.33;102549.56;480898;28;66508;-63
2021/04/13 00:52:28;;;;;;;5.50;2.40;;;;;;;18.07;51.40;102539.72;485057;28;65169;-64
2021/04/13 00:52:52;;;;;;;5.40;2.40;;;;;;;18.08;51.44;102546.88;484753;28;66611;-63
2021/04/13 00:53:11;;;;;;;5.10;2.40;;;;;;;18.07;51.61;102541.59;484919;28;66418;-63
2021/04/13 00:53:28;;;;;;;5.30;2.67;;;;;;;18.10;51.83;102544.00;486890;28;41579;-63
2021/04/13 00:53:45;;;;;;;6.50;2.40;;;;;;;18.09;51.35;102545.00;488519;28;19837;-63
2021/04/13 00:54:03;;;;;;;6.47;2.40;;;;;;;18.10;51.52;102553.00;489309;28;849;-63
2021/04/13 00:54:35;;;;;;;5.28;2.45;;;;;;;18.10;51.71;102546.72;487873;28;42575;-63
2021/04/13 00:54:55;;;;;;;6.05;2.45;;;;;;;18.10;51.71;102549.44;487078;28;65500;-63
2021/04/13 00:55:12;;;;;;;6.25;2.60;;;;;;;18.10;51.64;102552.13;487691;28;42365;-63
2021/04/13 00:55:33;;;;;;;6.88;2.55;;;;;;;18.09;51.79;102542.28;489217;28;881;-63
2021/04/13 00:56:02;;;;;;;6.53;2.60;;;;;;;18.10;51.59;102553.00;486982;28;66243;-63
2021/04/13 00:56:18;;;;;;;5.95;2.30;;;;;;;18.10;51.56;102546.72;487078;28;65156;-63
2021/04/13 00:56:34;;;;;;;7.60;2.40;;;;;;;18.11;51.48;102548.44;489326;28;917;-63
2021/04/13 00:56:49;;;;;;;6.20;2.40;;;;;;;18.12;51.47;102551.00;488993;28;1136;-63
2021/04/13 00:57:14;;;;;;;5.75;2.42;;;;;;;18.11;51.39;102541.16;489319;28;841;-63
2021/04/13 00:57:44;;;;;;;4.65;2.40;;;;;;;18.11;51.57;102552.00;486884;28;65124;-63
2021/04/13 00:58:14;;;;;;;5.03;2.20;;;;;;;18.12;51.41;102556.41;487052;28;66363;-63
2021/04/13 00:58:37;;;;;;;5.65;2.22;;;;;;;18.11;51.52;102546.56;486668;28;65305;-63
2021/04/13 00:59:07;;;;;;;5.22;2.42;;;;;;;18.12;51.65;102548.28;486863;28;66794;-63
2021/04/13 00:59:22;;;;;;;5.35;2.40;;;;;;;18.13;51.66;102549.16;486921;28;66252;-63
2021/04/13 00:59:37;;;;;;;5.32;2.28;;;;;;;18.11;51.26;102543.00;489338;28;893;-63
2021/04/13 00:59:54;;;;;;;5.80;2.33;;;;;;;18.12;51.35;102551.00;489200;28;970;-63
2021/04/13 01:00:26;;;;;;;5.45;2.50;;;;;;;18.14;51.42;102550.84;489108;28;1294;-63
2021/04/13 01:00:47;;;;;;;5.63;2.35;;;;;;;18.13;51.55;102555.44;487046;28;65198;-63
2021/04/13 01:01:24;;;;;;;5.65;2.17;;;;;;;18.12;51.46;102551.00;487066;28;65539;-64
2021/04/13 01:01:48;;;;;;;5.55;2.40;;;;;;;18.13;51.68;102551.84;486958;28;66047;-64
2021/04/13 01:02:10;;;;;;;5.43;2.40;;;;;;;18.14;51.73;102556.28;486604;28;66589;-64
2021/04/13 01:02:28;;;;;;;7.95;2.58;;;;;;;18.12;50.77;102552.84;485908;28;90637;-63
2021/04/13 01:02:43;;;;;;;10.40;2.50;;;;;;;18.17;50.83;102549.72;487653;28;43059;-63
2021/04/13 01:03:02;;;;;;;9.67;2.40;;;;;;;18.20;50.59;102549.41;486703;28;1227;-63
2021/04/13 01:03:16;;;;;;;8.95;2.42;;;;;;;18.21;50.10;102551.09;487108;28;41380;-63
2021/04/13 01:03:32;;;;;;;7.00;2.35;;;;;;;18.20;50.05;102555.69;489072;28;864;-63
2021/04/13 01:04:01;;;;;;;7.25;2.33;;;;;;;18.27;49.61;102545.97;487187;28;980;-65
2021/04/13 01:04:19;;;;;;;14.00;2.40;;;;;;;18.30;49.89;102550.25;487067;28;64883;-64
2021/04/13 01:04:45;;;;;;;15.02;2.47;;;;;;;18.33;49.75;102553.53;488626;28;18691;-63
2021/04/13 01:05:18;;;;;;;9.15;2.40;;;;;;;18.38;50.02;102556.66;486893;28;64942;-64
2021/04/13 01:05:39;;;;;;;11.13;2.78;;;;;;;18.41;49.54;102544.66;485040;28;67307;-63
2021/04/13 01:05:57;;;;;;;11.75;2.30;;;;;;;18.39;50.23;102544.81;484935;28;65314;-64
2021/04/13 01:06:19;;;;;;;11.60;2.20;;;;;;;18.39;50.53;102547.53;486831;28;18856;-64
2021/04/13 01:06:35;;;;;;;7.55;2.50;;;;;;;18.36;50.44;102547.81;486362;28;65828;-63
2021/04/13 01:07:15;;;;;;;9.55;2.63;;;;;;;18.34;49.90;102548.97;489296;28;902;-64
2021/04/13 01:07:34;;;;;;;9.65;2.55;;;;;;;18.33;50.36;102550.81;485089;28;65930;-64
2021/04/13 01:07:52;;;;;;;9.27;2.50;;;;;;;18.31;50.62;102543.84;485892;28;41556;-64
2021/04/13 01:08:35;;;;;;;8.15;2.30;;;;;;;18.28;50.66;102542.25;487230;28;19349;-63
2021/04/13 01:09:24;;;;;;;6.78;2.47;;;;;;;18.27;50.47;102545.97;486800;28;66938;-63
2021/04/13 01:09:45;;;;;;;10.48;2.42;;;;;;;18.26;50.57;102544.25;483923;28;66871;-63
2021/04/13 01:10:29;;;;;;;8.70;2.50;;;;;;;18.24;50.85;102548.97;486525;28;80752;-63
2021/04/13 01:10:44;;;;;;;7.97;2.38;;;;;;;18.24;50.76;102545.41;486881;28;66576;-63
2021/04/13 01:11:12;;;;;;;8.18;2.28;;;;;;;18.23;50.90;102541.84;489294;28;825;-63
2021/04/13 01:11:29;;;;;;;8.05;2.40;;;;;;;18.21;50.61;102543.84;486858;28;66339;-63
2021/04/13 01:11:54;;;;;;;7.13;2.20;;;;;;;18.21;51.14;102540.25;488570;28;19753;-63
2021/04/13 01:12:20;;;;;;;5.78;2.22;;;;;;;18.20;50.86;102539.41;486798;28;66594;-63
2021/04/13 01:12:38;;;;;;;7.43;2.28;;;;;;;18.20;50.72;102542.13;485375;28;66133;-63
2021/04/13 01:13:17;;;;;;;6.05;2.20;;;;;;;18.20;51.09;102544.84;486471;28;43279;-63
2021/04/13 01:13:44;;;;;;;7.47;2.25;;;;;;;18.19;50.89;102545.84;484229;28;88989;-63
2021/04/13 01:14:02;;;;;;;6.65;2.20;;;;;;;18.19;50.86;102542.28;486415;28;67462;-63
2021/04/13 01:14:17;;;;;;;5.82;2.10;;;;;;;18.19;50.82;102540.41;487663;28;43788;-63
2021/04/13 01:14:32;;;;;;;6.13;2.07;;;;;;;18.17;50.67;102545.16;489278;28;861;-63
2021/04/13 01:14:47;;;;;;;6.40;2.22;;;;;;;18.18;51.28;102543.28;489208;28;938;-63
2021/04/13 01:15:04;;;;;;;6.03;2.30;;;;;;;18.18;51.16;102543.28;489203;28;1029;-63
2021/04/13 01:15:20;;;;;;;6.70;2.40;;;;;;;18.15;51.21;102545.28;489244;28;1216;-63
2021/04/13 01:15:36;;;;;;;4.70;2.20;;;;;;;18.15;50.79;102539.00;489190;28;874;-63
2021/04/13 01:15:52;;;;;;;10.13;2.30;;;;;;;18.17;50.97;102549.72;489208;28;1173;-63
2021/04/13 01:16:06;;;;;;;10.70;2.22;;;;;;;18.15;51.05;102539.00;489127;28;1222;-63
2021/04/13 01:16:24;;;;;;;5.67;2.10;;;;;;;18.14;51.27;102540.88;489253;28;841;-63
2021/04/13 01:16:54;;;;;;;6.50;2.38;;;;;;;18.14;50.67;102543.59;488612;28;18705;-63
2021/04/13 01:17:09;;;;;;;8.63;2.40;;;;;;;18.14;51.04;102538.16;486859;28;66172;-63
2021/04/13 01:17:24;;;;;;;5.03;2.42;;;;;;;18.15;51.05;102547.16;489174;28;1037;-63
2021/04/13 01:17:41;;;;;;;6.20;2.40;;;;;;;18.14;50.75;102535.44;489053;28;1199;-63
2021/04/13 01:17:56;;;;;;;6.68;2.30;;;;;;;18.14;51.18;102540.88;489217;28;866;-63
2021/04/13 01:18:30;;;;;;;6.60;2.30;;;;;;;18.13;51.00;102541.00;489334;28;818;-63
2021/04/13 01:18:50;;;;;;;6.53;2.10;;;;;;;18.12;50.96;102542.88;486908;28;65321;-63
2021/04/13 01:19:31;;;;;;;7.25;2.28;;;;;;;18.12;51.37;102540.16;487005;28;65967;-64
2021/04/13 01:19:51;;;;;;;5.03;2.10;;;;;;;18.16;50.99;102540.72;486412;28;65783;-63
2021/04/13 01:20:29;;;;;;;5.88;2.25;;;;;;;18.17;50.21;102536.16;485887;28;90769;-63
2021/04/13 01:20:54;;;;;;;5.43;2.17;;;;;;;18.16;50.37;102540.72;486919;28;66056;-63
2021/04/13 01:21:42;;;;;;;6.72;2.20;;;;;;;18.20;50.89;102541.25;486757;28;67554;-63
2021/04/13 01:22:11;;;;;;;6.53;2.38;;;;;;;18.20;50.64;102539.41;487003;28;67255;-63
2021/04/13 01:22:49;;;;;;;6.32;2.40;;;;;;;18.19;50.98;102536.88;487048;28;66048;-63
2021/04/13 01:23:26;;;;;;;6.28;2.13;;;;;;;18.16;51.09;102538.00;486729;28;67403;-63
2021/04/13 01:23:52;;;;;;;5.70;2.13;;;;;;;18.14;50.99;102532.75;486978;28;65180;-63
2021/04/13 01:24:30;;;;;;;4.20;2.08;;;;;;;18.13;50.97;102533.75;486189;28;90072;-63
2021/04/13 01:25:00;;;;;;;5.03;2.20;;;;;;;18.12;50.66;102537.44;485821;28;35870;-63
2021/04/13 01:25:17;;;;;;;6.82;2.15;;;;;;;18.11;50.80;102540.31;485004;28;66634;-63
2021/04/13 01:25:36;;;;;;;4.70;2.20;;;;;;;18.10;51.08;102542.16;487411;28;910;-63
2021/04/13 01:26:00;;;;;;;6.65;2.20;;;;;;;18.11;51.03;102537.59;485784;28;42633;-63
2021/04/13 01:26:15;;;;;;;5.43;2.10;;;;;;;18.09;51.36;102540.44;485989;28;66822;-63
2021/04/13 01:26:35;;;;;;;5.32;2.00;;;;;;;18.09;50.97;102543.16;489407;28;830;-63
2021/04/13 01:26:53;;;;;;;6.25;2.22;;;;;;;18.09;50.81;102540.44;486957;28;66754;-63
2021/04/13 01:27:10;;;;;;;5.47;2.45;;;;;;;18.09;51.17;102545.88;488474;28;19332;-63
2021/04/13 01:27:25;;;;;;;5.13;2.30;;;;;;;18.08;50.96;102533.31;488576;28;19548;-63
2021/04/13 01:27:47;;;;;;;5.10;2.20;;;;;;;18.08;51.30;102538.72;489338;28;795;-63
2021/04/13 01:28:18;;;;;;;5.68;2.20;;;;;;;18.07;51.29;102539.72;486475;28;65112;-63
2021/04/13 01:28:37;;;;;;;4.88;2.17;;;;;;;18.07;51.40;102545.16;487131;28;63682;-63
2021/04/13 01:28:52;;;;;;;4.95;2.20;;;;;;;18.07;50.82;102541.59;485899;28;42723;-63
2021/04/13 01:29:08;;;;;;;4.53;2.20;;;;;;;18.07;51.25;102538.88;487260;28;1019;-63
2021/04/13 01:29:26;;;;;;;5.05;2.20;;;;;;;18.06;51.23;102540.72;487274;28;906;-63
2021/04/13 01:29:42;;;;;;;5.35;2.25;;;;;;;18.06;51.07;102534.44;487877;28;18698;-63
2021/04/13 01:30:01;;;;;;;5.38;2.38;;;;;;;18.05;51.24;102541.72;489304;28;932;-63
2021/04/13 01:30:17;;;;;;;5.20;2.20;;;;;;;18.05;51.10;102533.59;488472;28;20284;-63
2021/04/13 01:30:47;;;;;;;6.70;2.20;;;;;;;18.05;50.84;102541.72;489313;28;874;-63
2021/04/13 01:32:00;;;;;;;5.70;2.17;;;;;;;18.04;51.04;102542.72;486865;28;35130;-63
2021/04/13 01:32:16;;;;;;;6.22;2.10;;;;;;;18.05;51.21;102544.44;488454;28;21602;-63
2021/04/13 01:32:31;;;;;;;6.05;2.25;;;;;;;18.04;51.28;102540.00;489262;28;935;-63
2021/04/13 01:32:45;;;;;;;4.80;2.10;;;;;;;18.05;51.34;102540.88;489225;28;1005;-63
2021/04/13 01:33:18;;;;;;;4.93;2.10;;;;;;;18.05;51.05;102543.59;488201;28;917;-63
2021/04/13 01:33:44;;;;;;;4.50;2.00;;;;;;;18.03;51.18;102540.16;486903;28;66416;-63
2021/04/13 01:34:06;;;;;;;4.47;2.13;;;;;;;18.04;51.34;102536.44;487003;28;65591;-63
2021/04/13 01:34:36;;;;;;;5.75;2.28;;;;;;;18.04;51.25;102547.28;486859;28;65759;-63
2021/04/13 01:35:05;;;;;;;4.55;2.10;;;;;;;18.03;51.65;102541.00;486806;28;67244;-63
2021/04/13 01:35:29;;;;;;;4.28;2.10;;;;;;;18.02;51.65;102544.72;486430;28;66589;-63
2021/04/13 01:35:54;;;;;;;4.57;2.30;;;;;;;18.03;51.43;102545.56;486806;28;66763;-63
2021/04/13 01:36:37;;;;;;;4.97;2.10;;;;;;;18.04;51.33;102544.56;486847;28;67382;-63
2021/04/13 01:37:08;;;;;;;5.07;2.13;;;;;;;18.01;51.22;102540.28;484917;28;67482;-63
2021/04/13 01:38:16;;;;;;;5.35;1.90;;;;;;;18.03;51.20;102538.31;487788;28;34099;-63
2021/04/13 01:38:41;;;;;;;4.75;2.03;;;;;;;18.03;51.69;102543.72;486833;28;67394;-63
2021/04/13 01:39:15;;;;;;;4.70;1.95;;;;;;;18.03;51.54;102542.88;486972;28;67293;-63
2021/04/13 01:39:35;;;;;;;4.25;2.00;;;;;;;18.03;51.45;102549.13;486079;28;89970;-63
2021/04/13 01:40:23;;;;;;;5.35;2.10;;;;;;;18.02;51.23;102543.88;489256;28;878;-63
2021/04/13 01:41:44;;;;;;;4.60;2.13;;;;;;;18.03;51.24;102542.88;487665;28;35311;-63
2021/04/13 01:42:00;;;;;;;5.15;2.08;;;;;;;18.03;51.23;102548.28;486880;28;65684;-63
2021/04/13 01:42:16;;;;;;;4.95;1.95;;;;;;;18.02;51.30;102547.44;489147;28;839;-63
2021/04/13 01:42:33;;;;;;;3.72;1.90;;;;;;;18.02;51.31;102550.13;489020;28;1052;-63
2021/04/13 01:42:50;;;;;;;4.30;2.17;;;;;;;18.02;51.43;102543.88;488599;28;927;-63
2021/04/13 01:43:05;;;;;;;5.25;2.10;;;;;;;18.03;51.58;102545.56;487134;28;905;-63
2021/04/13 01:43:21;;;;;;;5.63;2.10;;;;;;;18.02;51.49;102542.00;488888;28;1262;-63
2021/04/13 01:43:40;;;;;;;4.72;2.10;;;;;;;18.02;51.38;102549.28;487328;28;910;-63
2021/04/13 01:43:56;;;;;;;4.00;2.00;;;;;;;18.01;51.47;102545.72;485823;28;41399;-63
2021/04/13 01:44:12;;;;;;;4.32;1.90;;;;;;;18.01;51.71;102539.44;487444;28;1794;-63
2021/04/13 01:44:41;;;;;;;4.80;2.00;;;;;;;18.02;51.55;102546.56;489179;28;953;-63
2021/04/13 01:45:27;;;;;;;5.55;2.38;;;;;;;18.00;51.60;102554.00;486824;28;64674;-63
2021/04/13 01:45:41;;;;;;;4.65;1.90;;;;;;;18.00;51.14;102543.16;486749;28;66665;-63
2021/04/13 01:45:57;;;;;;;4.40;1.98;;;;;;;18.02;51.00;102549.28;489201;28;1043;-64
2021/04/13 01:46:12;;;;;;;4.50;2.10;;;;;;;18.01;51.56;102545.72;489266;28;843;-64
2021/04/13 01:46:27;;;;;;;5.35;2.10;;;;;;;18.02;51.58;102555.56;489322;28;921;-63